Time;durP1;ratioP1;P1;durP2;ratioP2;P2;SDS_P1;SDS_P2;PMS_P1;PMS_P2;Temp;Humidity;BMP_temperature;BMP_pressure;BME280_temperature;BME280_humidity;BME280_pressure;Samples;Min_cycle;Max_cycle;Signal;HPM_P1;HPM_P2
2022/06/20 00:00:27;;;;;;;12.13;3.00;;;;;;;12.85;100.00;101192.63;5204906;28;20564;-71
2022/06/20 00:02:58;;;;;;;13.15;3.20;;;;;;;12.88;100.00;101184.31;5202129;28;20030;-71
2022/06/20 00:05:36;;;;;;;10.20;3.00;;;;;;;12.86;100.00;101172.88;5203306;28;20025;-71
2022/06/20 00:08:10;;;;;;;11.80;3.00;;;;;;;12.87;100.00;101177.28;5203032;28;20472;-71
2022/06/20 00:10:44;;;;;;;12.07;2.88;;;;;;;12.92;100.00;101177.72;5195823;28;20541;-71
2022/06/20 00:13:23;;;;;;;8.95;2.90;;;;;;;12.90;100.00;101174.34;5197716;28;20207;-71
2022/06/20 00:16:00;;;;;;;11.50;2.75;;;;;;;12.88;100.00;101184.31;5201209;28;20034;-71
2022/06/20 00:18:31;;;;;;;12.18;2.85;;;;;;;12.92;100.00;101191.13;5204145;28;20037;-71
2022/06/20 00:21:02;;;;;;;10.05;3.00;;;;;;;12.93;100.00;101203.56;5201070;28;20115;-71
2022/06/20 00:23:34;;;;;;;10.00;3.13;;;;;;;13.06;100.00;101208.75;5199526;28;20030;-71
2022/06/20 00:26:05;;;;;;;10.45;2.67;;;;;;;13.03;100.00;101235.81;5197867;28;20056;-71
2022/06/20 00:28:37;;;;;;;12.43;3.88;;;;;;;13.02;100.00;101253.72;5199118;28;20128;-71
2022/06/20 00:31:08;;;;;;;11.50;3.05;;;;;;;13.18;100.00;101249.78;5202268;28;20045;-71
2022/06/20 00:33:39;;;;;;;9.48;2.17;;;;;;;13.07;100.00;101254.16;5200176;28;20557;-71
2022/06/20 00:36:12;;;;;;;9.23;2.55;;;;;;;13.11;100.00;101266.34;5199820;28;20585;-71
2022/06/20 00:38:46;;;;;;;9.63;2.80;;;;;;;13.11;100.00;101290.44;5199805;28;20131;-71
2022/06/20 00:41:22;;;;;;;9.40;2.45;;;;;;;13.14;100.00;101306.28;5204302;28;20030;-71
2022/06/20 00:43:54;;;;;;;8.75;2.80;;;;;;;13.06;100.00;101324.81;5208317;28;20049;-71
2022/06/20 00:46:51;;;;;;;10.73;3.20;;;;;;;13.07;100.00;101369.38;5202109;28;20034;-71
2022/06/20 00:49:28;;;;;;;9.70;3.00;;;;;;;13.06;100.00;101401.63;5202914;28;20036;-71
2022/06/20 00:52:12;;;;;;;8.23;2.80;;;;;;;13.10;100.00;101430.75;5197039;28;20030;-71
2022/06/20 00:54:54;;;;;;;11.63;2.80;;;;;;;13.10;100.00;101464.75;5199506;28;20041;-71
2022/06/20 00:57:32;;;;;;;11.13;2.90;;;;;;;13.11;100.00;101437.81;5196726;28;20030;-71
2022/06/20 01:00:09;;;;;;;9.38;2.75;;;;;;;13.17;100.00;101411.53;5199225;28;20025;-71
2022/06/20 01:02:44;;;;;;;7.72;2.33;;;;;;;13.06;100.00;101393.59;5198092;28;20116;-71
2022/06/20 01:05:30;;;;;;;10.15;2.88;;;;;;;13.23;100.00;101374.38;5197874;28;20060;-71
2022/06/20 01:08:13;;;;;;;11.38;2.80;;;;;;;13.11;100.00;101376.19;5197638;28;20389;-71
2022/06/20 01:11:00;;;;;;;7.47;2.33;;;;;;;13.20;100.00;101355.00;5199170;28;20041;-71
2022/06/20 01:13:32;;;;;;;9.07;2.30;;;;;;;13.30;100.00;101335.41;5196439;28;20430;-71
2022/06/20 01:16:23;;;;;;;9.25;2.50;;;;;;;13.31;100.00;101329.09;5199907;28;20032;-71
2022/06/20 01:19:00;;;;;;;9.23;2.33;;;;;;;13.16;100.00;101332.97;5204559;28;20056;-71
2022/06/20 01:21:34;;;;;;;10.50;3.05;;;;;;;13.12;100.00;101318.13;5198370;28;20412;-71
2022/06/20 01:24:23;;;;;;;11.60;2.50;;;;;;;13.09;100.00;101299.59;5199896;28;20369;-71
2022/06/20 01:27:28;;;;;;;11.15;2.70;;;;;;;13.11;100.00;101298.50;5203780;28;20042;-71
2022/06/20 01:30:01;;;;;;;13.18;3.20;;;;;;;13.05;100.00;101287.44;5209268;28;20037;-71
2022/06/20 01:32:32;;;;;;;7.60;2.67;;;;;;;13.00;100.00;101281.56;5207411;28;20108;-71
2022/06/20 01:35:07;;;;;;;16.45;4.53;;;;;;;12.98;100.00;101283.53;5204701;28;20162;-71
2022/06/20 01:37:41;;;;;;;10.73;3.00;;;;;;;13.03;100.00;101281.34;5199013;28;20026;-71
2022/06/20 01:40:14;;;;;;;9.40;3.47;;;;;;;13.06;100.00;101273.91;5209232;28;20044;-71
2022/06/20 01:42:45;;;;;;;12.30;2.47;;;;;;;12.94;100.00;101269.53;5205748;28;20030;-71
2022/06/20 01:48:14;;;;;;;13.57;2.70;;;;;;;12.85;100.00;101251.53;5201551;28;20120;-71
2022/06/20 01:50:46;;;;;;;11.15;3.15;;;;;;;12.82;100.00;101257.13;5216582;28;20025;-71
2022/06/20 01:53:22;;;;;;;11.63;2.63;;;;;;;12.74;100.00;101244.34;5207907;28;20688;-71
2022/06/20 01:55:55;;;;;;;9.25;2.60;;;;;;;12.87;100.00;101252.25;5204470;28;20404;-71
2022/06/20 01:58:38;;;;;;;11.40;3.03;;;;;;;12.73;100.00;101256.00;5209140;28;20026;-71
2022/06/20 02:01:12;;;;;;;8.68;3.33;;;;;;;12.81;100.00;101244.69;5207996;28;20100;-71
2022/06/20 02:03:46;;;;;;;11.75;3.08;;;;;;;12.72;100.00;101238.25;5204380;28;20022;-71
2022/06/20 02:06:19;;;;;;;9.35;2.67;;;;;;;12.70;100.00;101230.34;5208898;28;20049;-71
2022/06/20 02:08:53;;;;;;;8.90;2.55;;;;;;;12.71;100.00;101231.19;5209408;28;20191;-71
2022/06/20 02:11:33;;;;;;;8.27;2.30;;;;;;;12.65;100.00;101219.13;5203801;28;20030;-71
2022/06/20 02:14:10;;;;;;;11.82;2.88;;;;;;;12.71;100.00;101218.69;5206764;28;20037;-71
2022/06/20 02:16:45;;;;;;;8.55;2.55;;;;;;;12.60;100.00;101213.31;5207202;28;20426;-71
2022/06/20 02:19:24;;;;;;;8.77;2.20;;;;;;;12.59;100.00;101203.56;5205775;28;20050;-71
2022/06/20 02:22:02;;;;;;;8.48;2.42;;;;;;;12.58;100.00;101201.00;5205562;28;20034;-71
2022/06/20 02:24:38;;;;;;;10.65;2.30;;;;;;;12.56;100.00;101190.44;5210765;28;20427;-71
2022/06/20 02:27:19;;;;;;;9.32;2.58;;;;;;;12.57;100.00;101184.09;5205496;28;20030;-70
2022/06/20 02:29:51;;;;;;;10.90;2.72;;;;;;;12.52;100.00;101188.97;5204507;28;20032;-70
2022/06/20 02:32:25;;;;;;;10.73;2.80;;;;;;;12.49;100.00;101200.78;5196511;28;20042;-70
2022/06/20 02:34:56;;;;;;;8.65;2.53;;;;;;;12.50;100.00;101196.25;5201819;28;20037;-71
2022/06/20 02:37:27;;;;;;;10.43;2.63;;;;;;;12.50;100.00;101191.78;5198054;28;20025;-71
2022/06/20 02:40:03;;;;;;;11.93;2.47;;;;;;;12.56;100.00;101198.47;5195365;28;20030;-70
2022/06/20 02:42:46;;;;;;;7.93;1.92;;;;;;;12.56;100.00;101190.44;5196465;28;20029;-71
2022/06/20 02:45:19;;;;;;;11.65;2.22;;;;;;;12.47;100.00;101191.16;5196035;28;20504;-71
2022/06/20 02:47:55;;;;;;;8.35;2.20;;;;;;;12.46;100.00;101178.75;5199112;28;20437;-70
2022/06/20 02:50:30;;;;;;;11.13;2.63;;;;;;;12.48;100.00;101177.69;5198857;28;20137;-71
2022/06/20 02:53:21;;;;;;;7.53;2.17;;;;;;;12.47;100.00;101175.09;5197751;28;20754;-71
2022/06/20 02:55:55;;;;;;;9.60;2.35;;;;;;;12.41;99.86;101159.56;5196948;28;20042;-71
2022/06/20 02:58:30;;;;;;;11.52;2.35;;;;;;;12.41;100.00;101146.16;5200676;28;20069;-71
2022/06/20 03:01:24;;;;;;;7.45;2.17;;;;;;;12.42;99.55;101140.66;5193092;28;20435;-71
2022/06/20 03:03:57;;;;;;;10.10;2.30;;;;;;;12.39;99.84;101127.56;5202356;28;20034;-70
2022/06/20 03:06:49;;;;;;;14.77;2.75;;;;;;;12.35;99.08;101144.84;5202413;28;20041;-70
2022/06/20 03:09:27;;;;;;;9.25;1.92;;;;;;;12.33;99.08;101147.63;5201258;28;20083;-70
2022/06/20 03:12:01;;;;;;;6.43;1.85;;;;;;;12.33;99.84;101157.44;5210833;28;20029;-70
2022/06/20 03:14:54;;;;;;;7.63;2.05;;;;;;;12.33;99.29;101161.00;5196726;28;20052;-71
2022/06/20 03:17:26;;;;;;;9.00;2.45;;;;;;;12.32;99.25;101164.63;5201077;28;20034;-71
2022/06/20 03:20:03;;;;;;;6.53;1.85;;;;;;;12.33;99.73;101158.31;5197681;28;20085;-71
2022/06/20 03:22:41;;;;;;;9.23;2.40;;;;;;;12.30;99.77;101174.59;5197776;28;20034;-71
2022/06/20 03:25:13;;;;;;;7.63;1.85;;;;;;;12.29;99.60;101182.75;5198424;28;20044;-70
2022/06/20 03:27:46;;;;;;;9.25;2.65;;;;;;;12.28;99.96;101183.72;5197018;28;20025;-70
2022/06/20 03:30:26;;;;;;;7.10;2.40;;;;;;;12.34;100.00;101178.75;5196866;28;20721;-70
2022/06/20 03:32:59;;;;;;;8.50;2.08;;;;;;;12.26;99.43;101177.66;5198569;28;20716;-71
2022/06/20 03:35:32;;;;;;;9.97;2.63;;;;;;;12.29;99.52;101186.28;5194230;28;20034;-70
2022/06/20 03:38:07;;;;;;;10.05;2.00;;;;;;;12.24;100.00;101196.50;5197288;28;20030;-70
2022/06/20 03:40:39;;;;;;;;;;;;;;;12.32;99.61;101204.75;5195242;28;20096;-70
2022/06/20 03:43:15;;;;;;;10.13;2.00;;;;;;;12.26;100.00;101220.47;5200751;28;19921;-70
2022/06/20 03:45:57;;;;;;;8.18;2.08;;;;;;;12.29;100.00;101220.19;5198738;28;20068;-70
2022/06/20 03:48:37;;;;;;;8.90;1.70;;;;;;;12.31;100.00;101231.63;5202292;28;20025;-70
2022/06/20 03:51:15;;;;;;;9.18;2.00;;;;;;;12.33;99.66;101240.41;5204239;28;20036;-70
2022/06/20 03:54:10;;;;;;;6.38;2.50;;;;;;;12.32;99.66;101252.94;5200781;28;20664;-70
2022/06/20 03:56:48;;;;;;;7.18;1.90;;;;;;;12.45;100.00;101255.50;5200937;28;20039;-70
2022/06/20 03:59:19;;;;;;;11.40;2.50;;;;;;;12.46;100.00;101254.53;5201198;28;20041;-70
2022/06/20 04:02:00;;;;;;;6.10;1.65;;;;;;;12.46;100.00;101253.69;5202605;28;20022;-70
2022/06/20 04:04:42;;;;;;;8.40;1.90;;;;;;;12.44;100.00;101253.78;5200941;28;20553;-70
2022/06/20 04:07:19;;;;;;;10.00;1.80;;;;;;;12.44;100.00;101255.63;5209107;28;20472;-70
2022/06/20 04:13:06;;;;;;;7.88;2.10;;;;;;;12.57;100.00;101258.22;5207543;28;20034;-70
2022/06/20 04:15:48;;;;;;;8.40;2.50;;;;;;;12.57;100.00;101261.72;5200675;28;20045;-70
2022/06/20 04:18:39;;;;;;;9.35;2.50;;;;;;;12.59;100.00;101267.81;5207276;28;20113;-70
2022/06/20 04:21:17;;;;;;;8.98;2.17;;;;;;;12.60;100.00;101277.56;5203863;28;20053;-70
2022/06/20 04:24:10;;;;;;;9.57;2.10;;;;;;;12.62;100.00;101280.09;5203434;28;20044;-70
2022/06/20 04:27:08;;;;;;;8.95;2.15;;;;;;;12.66;100.00;101276.22;5202597;28;20056;-70
2022/06/20 04:29:49;;;;;;;12.23;2.40;;;;;;;12.63;100.00;101281.81;5205423;28;20113;-70
2022/06/20 04:32:35;;;;;;;10.02;2.72;;;;;;;12.69;100.00;101284.84;5204914;28;20044;-70
2022/06/20 04:35:19;;;;;;;8.98;2.60;;;;;;;12.65;100.00;101285.22;5197347;28;20157;-70
2022/06/20 04:38:03;;;;;;;6.95;2.03;;;;;;;12.63;100.00;101288.00;5199191;28;20152;-70
2022/06/20 04:40:41;;;;;;;7.93;2.10;;;;;;;12.65;100.00;101291.41;5199691;28;20041;-70
2022/06/20 04:43:24;;;;;;;8.93;2.75;;;;;;;12.66;100.00;101290.47;5201029;28;20034;-70
2022/06/20 04:46:03;;;;;;;10.02;2.80;;;;;;;12.71;100.00;101296.31;5195971;28;20399;-70
2022/06/20 04:48:34;;;;;;;8.52;2.60;;;;;;;12.77;100.00;101299.47;5203958;28;20076;-70
2022/06/20 04:51:09;;;;;;;9.13;2.58;;;;;;;12.87;100.00;101305.81;5203138;28;20034;-70
2022/06/20 04:53:44;;;;;;;6.57;2.05;;;;;;;12.89;100.00;101312.75;5201399;28;20668;-70
2022/06/20 04:56:25;;;;;;;9.02;2.30;;;;;;;13.02;100.00;101318.00;5199061;28;20064;-70
2022/06/20 04:59:00;;;;;;;8.25;2.72;;;;;;;13.07;100.00;101315.78;5200542;28;20256;-70
2022/06/20 05:01:34;;;;;;;9.82;2.90;;;;;;;13.17;100.00;101307.03;5198595;28;20026;-70
2022/06/20 05:04:27;;;;;;;7.38;2.53;;;;;;;13.25;100.00;101309.94;5197190;28;20033;-70
2022/06/20 05:07:04;;;;;;;9.07;2.58;;;;;;;13.34;100.00;101320.78;5196835;28;20030;-70
2022/06/20 05:09:49;;;;;;;11.68;3.40;;;;;;;13.31;100.00;101304.97;5202682;28;20064;-71
2022/06/20 05:12:48;;;;;;;8.75;2.42;;;;;;;13.36;100.00;101309.09;5199109;28;20029;-71
2022/06/20 05:15:38;;;;;;;9.68;2.88;;;;;;;13.45;100.00;101305.69;5193248;28;20565;-71
2022/06/20 05:18:26;;;;;;;8.68;2.90;;;;;;;13.46;100.00;101308.25;5199321;28;20040;-70
2022/06/20 05:21:06;;;;;;;7.07;2.63;;;;;;;13.53;100.00;101311.25;5201859;28;20050;-70
2022/06/20 05:23:42;;;;;;;8.35;2.92;;;;;;;13.48;100.00;101325.06;5201020;28;20555;-70
2022/06/20 05:26:18;;;;;;;9.93;2.70;;;;;;;13.50;100.00;101333.81;5200197;28;20026;-70
2022/06/20 05:28:52;;;;;;;9.00;2.50;;;;;;;13.51;100.00;101338.19;5205785;28;20109;-70
2022/06/20 05:31:35;;;;;;;;;;;;;;;13.68;100.00;101327.94;5208342;28;20109;-70
2022/06/20 05:34:10;;;;;;;7.80;2.47;;;;;;;13.57;100.00;101322.59;5205798;28;20015;-70
2022/06/20 05:36:49;;;;;;;;;;;;;;;13.70;100.00;101316.09;5207176;28;20136;-70
2022/06/20 05:39:26;;;;;;;7.53;2.72;;;;;;;13.60;100.00;101312.47;5210496;28;20012;-70
2022/06/20 05:41:59;;;;;;;14.30;2.92;;;;;;;13.60;100.00;101306.28;5203988;28;20597;-70
2022/06/20 05:44:31;;;;;;;10.25;2.90;;;;;;;13.66;100.00;101311.97;5204436;28;20057;-70
2022/06/20 05:47:11;;;;;;;8.93;3.08;;;;;;;13.67;100.00;101305.63;5204294;28;20113;-70
2022/06/20 05:49:51;;;;;;;7.40;2.72;;;;;;;13.69;100.00;101310.84;5211115;28;20105;-71
2022/06/20 05:52:27;;;;;;;8.23;2.85;;;;;;;13.68;100.00;101311.84;5201417;28;20041;-71
2022/06/20 05:55:23;;;;;;;12.02;3.03;;;;;;;13.77;100.00;101316.47;5204811;28;20466;-70
2022/06/20 05:57:57;;;;;;;8.18;3.25;;;;;;;13.98;100.00;101329.03;5206863;28;20069;-70
2022/06/20 06:00:34;;;;;;;;;;;;;;;14.09;100.00;101326.31;5208436;28;20341;-70
2022/06/20 06:03:13;;;;;;;10.45;2.75;;;;;;;14.04;98.34;101329.41;5200220;28;20275;-70
2022/06/20 06:05:49;;;;;;;8.65;2.47;;;;;;;14.08;96.61;101330.00;5195850;28;20069;-70
2022/06/20 06:08:26;;;;;;;7.82;3.15;;;;;;;14.19;97.39;101334.44;5202045;28;20033;-71
2022/06/20 06:11:05;;;;;;;10.68;2.63;;;;;;;14.35;97.17;101332.19;5203255;28;20034;-71
2022/06/20 06:13:44;;;;;;;6.20;2.08;;;;;;;14.35;95.28;101328.66;5207978;28;20053;-71
2022/06/20 06:16:46;;;;;;;8.43;2.50;;;;;;;14.49;95.73;101331.84;5205475;28;20029;-71
2022/06/20 06:19:32;;;;;;;8.48;2.30;;;;;;;14.47;95.17;101331.13;5201029;28;20120;-71
2022/06/20 06:22:11;;;;;;;8.68;2.30;;;;;;;14.42;92.14;101337.88;5200497;28;20034;-71
2022/06/20 06:24:45;;;;;;;7.03;2.03;;;;;;;14.45;91.28;101345.69;5209735;28;20034;-70
2022/06/20 06:27:23;;;;;;;5.55;1.98;;;;;;;14.60;92.41;101338.19;5208379;28;20503;-70
2022/06/20 06:30:12;;;;;;;9.63;2.20;;;;;;;14.74;92.33;101337.00;5205498;28;20022;-70
2022/06/20 06:32:49;;;;;;;5.30;2.15;;;;;;;14.79;90.99;101345.53;5205572;28;20539;-70
2022/06/20 06:35:31;;;;;;;7.97;1.88;;;;;;;14.84;89.49;101343.25;5202105;28;20476;-70
2022/06/20 06:38:05;;;;;;;5.85;1.98;;;;;;;14.87;88.06;101337.63;5204412;28;20538;-70
2022/06/20 06:40:51;;;;;;;9.05;2.33;;;;;;;14.92;89.54;101346.16;5200023;28;20423;-70
2022/06/20 06:43:38;;;;;;;7.20;1.85;;;;;;;14.95;88.80;101345.03;5209346;28;20458;-70
2022/06/20 06:46:17;;;;;;;6.60;2.22;;;;;;;14.94;88.73;101354.94;5207965;28;20033;-70
2022/06/20 06:48:56;;;;;;;6.80;1.85;;;;;;;15.09;89.39;101360.78;5210611;28;20034;-70
2022/06/20 06:51:36;;;;;;;7.57;2.10;;;;;;;15.25;88.35;101358.47;5215574;28;20037;-70
2022/06/20 06:54:15;;;;;;;7.63;2.22;;;;;;;15.46;86.02;101371.00;5202172;28;20481;-70
2022/06/20 06:57:15;;;;;;;9.50;2.22;;;;;;;15.53;84.48;101368.59;5204866;28;20884;-70
2022/06/20 06:59:55;;;;;;;5.47;1.85;;;;;;;15.88;86.49;101371.69;5227220;28;20037;-70
2022/06/20 07:02:30;;;;;;;8.50;2.25;;;;;;;15.84;80.30;101375.66;5205090;28;20029;-71
2022/06/20 07:05:12;;;;;;;;;;;;;;;16.15;81.00;101374.72;5220413;28;20037;-71
2022/06/20 07:08:09;;;;;;;6.70;1.92;;;;;;;16.15;80.55;101378.25;5212116;28;20025;-70
2022/06/20 07:11:12;;;;;;;5.78;1.85;;;;;;;16.21;79.66;101383.06;5203144;28;20061;-71
2022/06/20 07:13:54;;;;;;;5.72;1.42;;;;;;;16.13;78.14;101390.13;5196035;28;20046;-71
2022/06/20 07:16:33;;;;;;;6.50;1.80;;;;;;;15.95;80.80;101396.19;5201201;28;20030;-71
2022/06/20 07:19:08;;;;;;;4.25;1.60;;;;;;;15.64;80.37;101396.25;5203017;28;20493;-71
2022/06/20 07:21:42;;;;;;;5.60;1.67;;;;;;;15.29;80.46;101397.53;5200724;28;20038;-71
2022/06/20 07:24:20;;;;;;;5.32;1.73;;;;;;;15.28;80.91;101403.03;5204106;28;20130;-71
2022/06/20 07:27:00;;;;;;;7.78;2.47;;;;;;;15.13;81.51;101402.56;5204284;28;20274;-71
2022/06/20 07:29:44;;;;;;;6.07;1.63;;;;;;;15.19;81.15;101395.81;5209217;28;20064;-71
2022/06/20 07:32:39;;;;;;;5.45;1.60;;;;;;;15.20;81.96;101390.25;5208532;28;20060;-71
2022/06/20 07:35:26;;;;;;;8.18;2.33;;;;;;;15.36;80.79;101389.78;5204776;28;20421;-71
2022/06/20 07:38:22;;;;;;;5.05;1.85;;;;;;;15.52;80.88;101400.03;5210230;28;20030;-71
2022/06/20 07:41:07;;;;;;;7.03;1.83;;;;;;;15.84;79.87;101391.81;5209540;28;20093;-71
2022/06/20 07:43:54;;;;;;;5.85;1.80;;;;;;;16.11;76.85;101392.13;5204713;28;20087;-71
2022/06/20 07:46:41;;;;;;;8.43;2.20;;;;;;;16.20;76.37;101389.47;5210077;28;20034;-71
2022/06/20 07:49:28;;;;;;;7.38;1.67;;;;;;;16.16;71.97;101396.09;5212050;28;20032;-71
2022/06/20 07:52:07;;;;;;;6.05;1.60;;;;;;;16.26;71.23;101407.75;5211345;28;20468;-71
2022/06/20 07:54:46;;;;;;;6.97;1.50;;;;;;;16.24;70.46;101406.16;5209346;28;20048;-71
2022/06/20 07:57:24;;;;;;;5.28;1.60;;;;;;;16.15;70.38;101404.34;5207086;28;20136;-71
2022/06/20 08:00:06;;;;;;;8.10;2.00;;;;;;;16.06;70.80;101406.00;5208255;28;20040;-71
2022/06/20 08:02:48;;;;;;;5.63;1.52;;;;;;;16.07;69.00;101405.88;5210245;28;20049;-71
2022/06/20 08:05:26;;;;;;;6.88;1.60;;;;;;;16.02;69.93;101410.81;5208699;28;20054;-71
2022/06/20 08:08:09;;;;;;;5.00;1.75;;;;;;;16.19;67.31;101414.66;5211062;28;21414;-71
2022/06/20 08:10:46;;;;;;;4.97;1.73;;;;;;;16.53;68.50;101406.19;5206778;28;20042;-71
2022/06/20 08:13:43;;;;;;;5.65;2.00;;;;;;;16.94;66.20;101420.34;5211728;28;20042;-72
2022/06/20 08:16:21;;;;;;;4.82;2.10;;;;;;;17.24;64.40;101413.88;5212975;28;20100;-72
2022/06/20 08:18:55;;;;;;;6.93;2.30;;;;;;;17.31;63.52;101416.81;5205135;28;20041;-72
2022/06/20 08:21:53;;;;;;;5.90;1.92;;;;;;;17.44;63.99;101422.72;5206896;28;20068;-71
2022/06/20 08:24:32;;;;;;;9.00;2.17;;;;;;;17.32;66.43;101421.22;5212846;28;20037;-72
2022/06/20 08:27:21;;;;;;;5.72;1.75;;;;;;;17.10;67.42;101426.97;5226048;28;20053;-71
2022/06/20 08:30:02;;;;;;;5.25;1.98;;;;;;;16.97;65.69;101428.16;5209085;28;20041;-72
2022/06/20 08:32:44;;;;;;;6.30;1.92;;;;;;;16.90;66.42;101428.88;5213845;28;20030;-71
2022/06/20 08:35:21;;;;;;;9.52;2.30;;;;;;;16.62;64.86;101429.53;5211571;28;20388;-72
2022/06/20 08:38:04;;;;;;;7.80;1.90;;;;;;;16.55;67.41;101431.13;5210906;28;20058;-72
2022/06/20 08:40:39;;;;;;;7.18;2.45;;;;;;;16.56;68.21;101429.28;5210960;28;20041;-72
2022/06/20 08:43:49;;;;;;;6.07;2.20;;;;;;;16.68;67.80;101433.50;5209227;28;20167;-72
2022/06/20 08:46:27;;;;;;;5.75;1.70;;;;;;;16.83;62.74;101428.56;5199529;28;20045;-72
2022/06/20 08:49:40;;;;;;;7.35;2.10;;;;;;;16.96;63.61;101431.81;5211661;28;20579;-72
2022/06/20 08:52:39;;;;;;;6.70;2.70;;;;;;;17.43;64.16;101439.06;5211712;28;20596;-71
2022/06/20 08:55:22;;;;;;;6.93;1.85;;;;;;;17.64;64.79;101442.41;5211462;28;20477;-71
2022/06/20 08:58:12;;;;;;;8.32;1.92;;;;;;;17.70;64.60;101451.75;5214811;28;20041;-71
2022/06/20 09:01:08;;;;;;;6.35;2.42;;;;;;;17.66;64.25;101457.56;5207330;28;20041;-71
2022/06/20 09:03:50;;;;;;;7.10;2.05;;;;;;;17.40;64.90;101452.88;5194234;28;20026;-72
2022/06/20 09:06:55;;;;;;;4.93;1.70;;;;;;;17.50;62.83;101452.81;5200596;28;20026;-72
2022/06/20 09:10:10;;;;;;;9.35;2.35;;;;;;;17.60;62.80;101459.91;5196500;28;20049;-72
2022/06/20 09:13:02;;;;;;;6.10;2.15;;;;;;;17.79;60.02;101466.19;5210938;28;20032;-71
2022/06/20 09:16:12;;;;;;;8.20;2.58;;;;;;;17.76;61.20;101459.25;5211491;28;20037;-72
2022/06/20 09:19:03;;;;;;;6.72;2.00;;;;;;;18.13;58.19;101452.13;5206718;28;20050;-72
2022/06/20 09:21:40;;;;;;;5.63;2.10;;;;;;;18.26;58.24;101468.81;5211312;28;20466;-72
2022/06/20 09:24:24;;;;;;;8.30;2.05;;;;;;;18.17;59.43;101465.16;5203878;28;20378;-72
2022/06/20 09:27:16;;;;;;;6.85;2.45;;;;;;;18.11;60.22;101473.88;5206995;28;20034;-72
2022/06/20 09:29:47;;;;;;;8.55;2.67;;;;;;;17.84;59.16;101474.72;5206987;28;20494;-72
2022/06/20 09:32:27;;;;;;;7.32;2.67;;;;;;;17.88;60.06;101470.72;5210304;28;20029;-72
2022/06/20 09:35:27;;;;;;;5.55;2.25;;;;;;;18.13;57.00;101466.47;5207654;28;20041;-72
2022/06/20 09:38:18;;;;;;;8.27;2.92;;;;;;;18.09;57.13;101483.97;5208406;28;20038;-72
2022/06/20 09:40:57;;;;;;;5.75;2.10;;;;;;;18.28;57.09;101472.19;5204149;28;20080;-72
2022/06/20 09:43:55;;;;;;;6.65;2.38;;;;;;;18.23;56.92;101466.38;5201673;28;20503;-72
2022/06/20 09:46:44;;;;;;;5.70;1.80;;;;;;;18.09;55.00;101466.94;5208463;28;20499;-72
2022/06/20 09:49:37;;;;;;;5.60;1.95;;;;;;;18.06;55.91;101473.44;5208490;28;20021;-71
2022/06/20 09:52:21;;;;;;;5.72;2.15;;;;;;;18.29;54.67;101470.34;5205627;28;20029;-72
2022/06/20 09:55:03;;;;;;;7.32;2.30;;;;;;;18.47;54.73;101460.41;5209072;28;20978;-72
2022/06/20 09:57:44;;;;;;;4.82;2.25;;;;;;;18.49;56.82;101462.97;5210628;28;20026;-72
2022/06/20 10:00:39;;;;;;;6.15;2.17;;;;;;;18.66;55.00;101453.13;5207761;28;20062;-72
2022/06/20 10:03:21;;;;;;;7.95;2.63;;;;;;;18.96;56.24;101447.31;5206791;28;20029;-72
2022/06/20 10:06:01;;;;;;;7.35;2.75;;;;;;;18.84;54.26;101458.56;5206125;28;20041;-72
2022/06/20 10:09:05;;;;;;;8.60;2.80;;;;;;;18.99;54.31;101457.81;5201566;28;20029;-72
2022/06/20 10:12:09;;;;;;;8.68;3.03;;;;;;;19.08;52.97;101469.56;5204166;28;20034;-73
2022/06/20 10:15:02;;;;;;;8.95;2.95;;;;;;;19.14;53.79;101465.38;5203811;28;20053;-72
2022/06/20 10:17:59;;;;;;;11.65;3.20;;;;;;;19.08;55.02;101472.28;5203422;28;20543;-70
2022/06/20 10:20:33;;;;;;;7.47;3.05;;;;;;;18.79;53.64;101465.25;5216224;28;20049;-72
2022/06/20 10:23:17;;;;;;;9.85;2.95;;;;;;;18.83;55.49;101476.66;5206183;28;20032;-72
2022/06/20 10:25:55;;;;;;;6.72;3.03;;;;;;;19.12;53.60;101473.66;5205177;28;20033;-72
2022/06/20 10:28:31;;;;;;;9.45;3.13;;;;;;;19.33;55.87;101470.59;5205887;28;20026;-72
2022/06/20 10:31:32;;;;;;;8.77;3.35;;;;;;;19.33;54.90;101492.22;5198927;28;20032;-72
2022/06/20 10:34:07;;;;;;;10.27;2.97;;;;;;;19.23;55.03;101486.06;5200321;28;20029;-71
2022/06/20 10:36:46;;;;;;;9.75;3.33;;;;;;;19.29;54.08;101484.56;5201764;28;20037;-70
2022/06/20 10:39:24;;;;;;;9.05;3.08;;;;;;;19.23;54.83;101482.50;5204302;28;20039;-73
2022/06/20 10:42:14;;;;;;;9.70;2.90;;;;;;;19.16;54.43;101491.25;5201666;28;20041;-73
2022/06/20 10:45:31;;;;;;;7.40;2.55;;;;;;;18.99;53.16;101487.56;5199383;28;20022;-73
2022/06/20 10:48:36;;;;;;;6.97;2.53;;;;;;;19.22;53.63;101497.91;5181525;28;20030;-73
2022/06/20 10:51:07;;;;;;;;;;;;;;;19.22;52.59;101506.00;5199969;28;20040;-69
2022/06/20 10:53:46;;;;;;;9.63;2.85;;;;;;;18.95;51.07;101513.25;5201465;28;20299;-72
2022/06/20 10:56:29;;;;;;;6.47;2.33;;;;;;;19.05;50.71;101513.16;5205786;28;20802;-69
2022/06/20 10:59:31;;;;;;;6.18;2.25;;;;;;;19.04;51.39;101510.59;5203269;28;20030;-71
2022/06/20 11:02:08;;;;;;;6.03;2.75;;;;;;;19.22;50.23;101508.72;5199923;28;20037;-74
2022/06/20 11:05:17;;;;;;;7.90;2.50;;;;;;;19.45;50.82;101511.75;5200155;28;20037;-73
2022/06/20 11:08:12;;;;;;;7.35;2.80;;;;;;;19.68;50.66;101508.50;5198493;28;20049;-73
2022/06/20 11:11:10;;;;;;;6.93;2.55;;;;;;;20.13;49.99;101505.50;5197734;28;20512;-73
2022/06/20 11:13:54;;;;;;;8.32;2.65;;;;;;;20.12;49.87;101517.38;5206508;28;20342;-73
2022/06/20 11:16:59;;;;;;;6.90;2.17;;;;;;;20.47;50.92;101515.44;5215308;28;20026;-73
2022/06/20 11:19:37;;;;;;;9.40;2.63;;;;;;;20.34;49.95;101521.31;5214686;28;20301;-72
2022/06/20 11:22:26;;;;;;;9.25;2.80;;;;;;;20.35;49.78;101525.75;5214217;28;20033;-73
2022/06/20 11:25:16;;;;;;;7.93;2.42;;;;;;;20.85;50.29;101515.03;5209424;28;20034;-72
2022/06/20 11:28:00;;;;;;;7.78;2.33;;;;;;;20.85;48.31;101515.88;5211940;28;20700;-73
2022/06/20 11:30:58;;;;;;;5.90;2.50;;;;;;;20.70;48.05;101523.81;5215235;28;20366;-73
2022/06/20 11:36:45;;;;;;;6.95;2.75;;;;;;;20.29;49.97;101518.28;5214756;28;20230;-73
2022/06/20 11:39:36;;;;;;;9.10;2.77;;;;;;;20.28;50.85;101521.97;5207892;28;20037;-73
2022/06/20 11:42:38;;;;;;;6.90;2.70;;;;;;;19.96;50.82;101520.00;5212206;28;20029;-73
2022/06/20 11:45:47;;;;;;;6.45;2.50;;;;;;;20.11;52.29;101512.94;5211073;28;20038;-73
2022/06/20 11:48:30;;;;;;;8.32;2.50;;;;;;;20.07;50.74;101503.44;5215899;28;20050;-73
2022/06/20 11:51:29;;;;;;;9.23;2.75;;;;;;;20.34;49.31;101507.75;5207945;28;20468;-73
2022/06/20 11:54:22;;;;;;;9.23;2.58;;;;;;;20.03;49.58;101506.66;5202533;28;20030;-73
2022/06/20 11:57:10;;;;;;;6.60;2.30;;;;;;;20.14;49.96;101499.09;5212798;28;20088;-73
2022/06/20 11:59:54;;;;;;;7.05;2.17;;;;;;;20.32;50.01;101509.78;5209828;28;20029;-74
2022/06/20 12:02:52;;;;;;;9.32;2.40;;;;;;;20.12;47.11;101503.81;5203867;28;20485;-73
2022/06/20 12:06:01;;;;;;;7.32;2.08;;;;;;;20.30;48.36;101516.41;5211284;28;20040;-73
2022/06/20 12:08:36;;;;;;;6.43;2.42;;;;;;;19.87;47.49;101507.44;5211878;28;20064;-73
2022/06/20 12:11:32;;;;;;;6.72;2.30;;;;;;;20.02;46.09;101508.53;5210629;28;20029;-73
2022/06/20 12:14:25;;;;;;;9.25;2.08;;;;;;;20.37;48.35;101517.44;5202558;28;20737;-72
2022/06/20 12:17:43;;;;;;;9.80;2.67;;;;;;;20.60;46.48;101503.31;5208769;28;20037;-73
2022/06/20 12:23:27;;;;;;;8.63;2.28;;;;;;;20.51;47.16;101494.25;5210199;28;20471;-72
2022/06/20 12:26:05;;;;;;;8.93;2.65;;;;;;;20.24;47.25;101503.53;5204939;28;20572;-72
2022/06/20 12:28:42;;;;;;;7.63;2.38;;;;;;;20.33;46.98;101499.81;5209588;28;20024;-73
2022/06/20 12:31:29;;;;;;;7.97;2.40;;;;;;;20.35;48.51;101501.34;5208501;28;20515;-73
2022/06/20 12:34:09;;;;;;;8.13;2.42;;;;;;;20.49;47.36;101494.41;5208206;28;20440;-73
2022/06/20 12:37:04;;;;;;;8.23;2.17;;;;;;;20.77;49.21;101486.03;5213484;28;20040;-73
2022/06/20 12:39:43;;;;;;;7.15;2.40;;;;;;;20.84;47.47;101503.31;5211382;28;20188;-72
2022/06/20 12:42:41;;;;;;;8.48;2.05;;;;;;;20.37;46.87;101496.59;5210334;28;20018;-74
2022/06/20 12:45:31;;;;;;;6.90;2.20;;;;;;;20.27;45.88;101503.16;5204639;28;20174;-73